Time;durP1;ratioP1;P1;durP2;ratioP2;P2;SDS_P1;SDS_P2;PMS_P1;PMS_P2;Temp;Humidity;BMP_temperature;BMP_pressure;BME280_temperature;BME280_humidity;BME280_pressure;Samples;Min_cycle;Max_cycle;Signal;HPM_P1;HPM_P2
2021/03/08 00:01:31;;;;;;;14.73;9.50;;;;;;;1.72;66.09;98820.98;128326;1108;22829;-73
2021/03/08 00:03:59;;;;;;;17.60;10.27;;;;;;;1.71;65.54;98805.91;128322;1107;23755;-73
2021/03/08 00:06:27;;;;;;;17.97;10.37;;;;;;;1.70;65.92;98818.52;128163;1106;23794;-74
2021/03/08 00:08:54;;;;;;;15.55;10.00;;;;;;;1.70;66.57;98809.63;128358;1108;23387;-74
2021/03/08 00:11:21;;;;;;;15.57;9.30;;;;;;;1.69;66.51;98800.75;128152;1107;22868;-74
2021/03/08 00:13:49;;;;;;;16.20;10.10;;;;;;;1.70;66.21;98802.41;128273;1108;23014;-74
2021/03/08 00:16:16;;;;;;;19.30;10.65;;;;;;;1.71;65.98;98797.85;128214;1107;23235;-74
2021/03/08 00:18:44;;;;;;;16.77;10.23;;;;;;;1.71;66.67;98795.99;128277;1108;22896;-74
2021/03/08 00:21:12;;;;;;;16.80;10.43;;;;;;;1.71;65.56;98795.99;128189;1108;23319;-74
2021/03/08 00:23:39;;;;;;;16.25;10.35;;;;;;;1.70;65.77;98794.34;128323;1108;22912;-74
2021/03/08 00:26:08;;;;;;;16.33;9.40;;;;;;;1.71;66.47;98787.11;128254;1108;22859;-73
2021/03/08 00:28:36;;;;;;;16.23;10.67;;;;;;;1.71;66.19;98785.25;128364;1109;22809;-74
2021/03/08 00:31:03;;;;;;;15.27;10.30;;;;;;;1.73;65.57;98787.72;128170;1107;22924;-74
2021/03/08 00:33:31;;;;;;;15.75;10.20;;;;;;;1.72;65.56;98773.47;128337;1108;22959;-73
2021/03/08 00:35:59;;;;;;;15.10;9.65;;;;;;;1.71;66.01;98776.38;128184;1108;22888;-73
2021/03/08 00:38:26;;;;;;;17.10;10.47;;;;;;;1.70;66.42;98767.49;128333;1108;23067;-73
2021/03/08 00:40:54;;;;;;;18.60;11.10;;;;;;;1.69;66.77;98767.70;128226;1108;22831;-73
2021/03/08 00:43:23;;;;;;;19.00;10.90;;;;;;;1.69;66.06;98765.02;128251;1108;22880;-73
2021/03/08 00:45:50;;;;;;;20.00;10.30;;;;;;;1.67;65.54;98759.87;128201;1107;22989;-74
2021/03/08 00:48:18;;;;;;;18.50;11.15;;;;;;;1.66;66.36;98758.22;128259;1108;22890;-73
2021/03/08 00:50:46;;;;;;;15.30;9.63;;;;;;;1.65;66.85;98755.75;128352;1107;22873;-74
2021/03/08 00:53:18;;;;;;;16.50;9.73;;;;;;;1.63;66.14;98760.52;128266;1107;22892;-74
2021/03/08 00:55:46;;;;;;;18.07;9.07;;;;;;;1.62;65.97;98748.95;128350;1108;22963;-74
2021/03/08 00:58:14;;;;;;;17.40;9.60;;;;;;;1.65;66.40;98753.07;128100;1108;22840;-73
2021/03/08 01:00:41;;;;;;;14.93;9.67;;;;;;;1.67;66.42;98746.45;128299;1108;22854;-73
2021/03/08 01:03:09;;;;;;;15.33;9.07;;;;;;;1.68;65.87;98749.95;128130;1108;22915;-73
2021/03/08 01:05:40;;;;;;;15.90;9.20;;;;;;;1.69;66.61;98743.55;128311;1109;23480;-73
2021/03/08 01:08:16;;;;;;;14.83;9.90;;;;;;;1.68;66.01;98739.22;128213;1109;22905;-73
2021/03/08 01:10:44;;;;;;;15.17;9.70;;;;;;;1.68;66.79;98734.66;128316;1108;23004;-73
2021/03/08 01:13:19;;;;;;;15.17;9.67;;;;;;;1.69;67.14;98728.25;128195;1108;22871;-73
2021/03/08 01:15:51;;;;;;;13.63;9.43;;;;;;;1.68;66.96;98726.61;128323;1107;22861;-73
2021/03/08 01:18:19;;;;;;;17.75;10.65;;;;;;;1.67;66.50;98722.28;128201;1108;22828;-73
2021/03/08 01:20:47;;;;;;;17.67;9.53;;;;;;;1.66;66.26;98723.31;128295;1108;23627;-73
2021/03/08 01:23:15;;;;;;;13.95;10.05;;;;;;;1.66;66.51;98723.31;128164;1108;22911;-73
2021/03/08 01:25:43;;;;;;;18.60;10.10;;;;;;;1.64;67.10;98714.66;128322;1108;22867;-73
2021/03/08 01:28:11;;;;;;;17.83;10.50;;;;;;;1.64;66.77;98711.97;128214;1107;23282;-74
2021/03/08 01:30:43;;;;;;;18.63;9.87;;;;;;;1.63;67.19;98714.88;128298;1108;22914;-74
2021/03/08 01:33:12;;;;;;;17.17;11.50;;;;;;;1.63;66.51;98706.82;128219;1108;22892;-73
2021/03/08 01:35:40;;;;;;;14.50;10.47;;;;;;;1.63;66.41;98710.33;128288;1108;23000;-75
2021/03/08 01:38:07;;;;;;;17.10;10.10;;;;;;;1.65;66.21;98713.62;128217;1109;22867;-75
2021/03/08 01:40:37;;;;;;;20.80;12.05;;;;;;;1.65;66.52;98716.30;128296;1108;22895;-73
2021/03/08 01:43:05;;;;;;;17.85;11.75;;;;;;;1.66;67.44;98711.76;128174;1109;22891;-73
2021/03/08 01:45:32;;;;;;;16.63;10.63;;;;;;;1.65;67.16;98716.30;128306;1108;22928;-73
2021/03/08 01:48:00;;;;;;;18.40;11.13;;;;;;;1.64;66.63;98720.03;128330;1107;22835;-72
2021/03/08 01:50:36;;;;;;;16.33;10.67;;;;;;;1.64;67.13;98719.20;128227;1108;22906;-73
2021/03/08 01:53:08;;;;;;;20.10;11.45;;;;;;;1.61;66.64;98714.27;128345;1108;22856;-72
2021/03/08 01:55:36;;;;;;;22.83;12.20;;;;;;;1.60;67.37;98718.81;128228;1107;23820;-72
2021/03/08 01:58:04;;;;;;;18.37;11.87;;;;;;;1.61;67.19;98720.46;128310;1107;23450;-72
2021/03/08 02:00:32;;;;;;;15.87;10.97;;;;;;;1.61;67.74;98719.64;128177;1108;22876;-73
2021/03/08 02:02:59;;;;;;;21.30;11.63;;;;;;;1.61;67.40;98716.95;128275;1108;22906;-72
2021/03/08 02:05:35;;;;;;;15.83;11.07;;;;;;;1.58;67.06;98715.55;128149;1108;22862;-72
2021/03/08 02:08:05;;;;;;;31.30;16.65;;;;;;;1.59;67.53;98713.66;128269;1108;22825;-72
2021/03/08 02:10:36;;;;;;;19.97;11.43;;;;;;;1.58;67.17;98714.73;128261;1107;22858;-72
2021/03/08 02:13:09;;;;;;;17.45;11.25;;;;;;;1.56;66.76;98714.13;128395;1107;23024;-73
2021/03/08 02:15:40;;;;;;;18.60;11.70;;;;;;;1.54;68.10;98711.66;128206;1108;22862;-73
2021/03/08 02:18:49;;;;;;;19.35;11.60;;;;;;;1.55;66.76;98713.30;128320;1107;22861;-74
2021/03/08 02:21:57;;;;;;;16.65;10.95;;;;;;;1.55;67.60;98707.11;128207;1109;22933;-74
2021/03/08 02:24:33;;;;;;;26.77;16.60;;;;;;;1.54;67.11;98708.98;128297;1108;23463;-74
2021/03/08 02:27:03;;;;;;;18.80;10.97;;;;;;;1.55;66.93;98704.43;128104;1108;23046;-74
2021/03/08 02:29:49;;;;;;;17.97;10.03;;;;;;;1.54;67.46;98708.16;128324;1108;22883;-74
2021/03/08 02:32:18;;;;;;;15.65;10.35;;;;;;;1.53;67.55;98712.70;128267;1107;23798;-74
2021/03/08 02:34:51;;;;;;;16.10;10.53;;;;;;;1.53;67.08;98706.51;128274;1108;22865;-74
2021/03/08 02:37:21;;;;;;;17.00;10.85;;;;;;;1.54;67.02;98714.34;128210;1108;22852;-74
2021/03/08 02:39:51;;;;;;;15.63;10.77;;;;;;;1.56;66.93;98708.76;128406;1108;22873;-74
2021/03/08 02:42:23;;;;;;;18.50;12.15;;;;;;;1.54;68.23;98708.98;128192;1108;23543;-74
2021/03/08 02:44:54;;;;;;;15.75;10.75;;;;;;;1.53;67.97;98696.59;128321;1108;23080;-74
2021/03/08 02:47:22;;;;;;;19.30;10.85;;;;;;;1.54;67.24;98692.05;128120;1108;23038;-75
2021/03/08 02:49:50;;;;;;;18.30;10.80;;;;;;;1.52;67.54;98689.58;128333;1108;22928;-74
2021/03/08 02:52:17;;;;;;;18.13;10.17;;;;;;;1.52;68.07;98694.12;128133;1108;22948;-74
2021/03/08 02:54:48;;;;;;;17.63;10.37;;;;;;;1.52;67.24;98696.81;128273;1108;22844;-74
2021/03/08 02:57:17;;;;;;;17.77;9.97;;;;;;;1.51;67.58;98695.98;128210;1107;22852;-74
2021/03/08 02:59:48;;;;;;;42.00;20.87;;;;;;;1.52;68.10;98699.49;128345;1109;23424;-74
2021/03/08 03:02:16;;;;;;;22.87;12.93;;;;;;;1.52;68.10;98689.58;128134;1108;23498;-74
2021/03/08 03:04:43;;;;;;;19.13;11.07;;;;;;;1.53;67.98;98696.59;128259;1108;23016;-74
2021/03/08 03:07:11;;;;;;;52.65;21.90;;;;;;;1.52;67.48;98689.58;128172;1107;22859;-75
2021/03/08 03:09:39;;;;;;;24.80;12.87;;;;;;;1.51;68.12;98698.67;128309;1109;22961;-73
2021/03/08 03:12:07;;;;;;;19.00;11.27;;;;;;;1.51;67.86;98700.53;128177;1108;23633;-75
2021/03/08 03:14:34;;;;;;;19.75;12.00;;;;;;;1.50;68.93;98697.03;128285;1108;23029;-74
2021/03/08 03:17:04;;;;;;;19.60;11.73;;;;;;;1.48;68.91;98698.28;128249;1108;25714;-74
2021/03/08 03:19:33;;;;;;;15.50;10.43;;;;;;;1.44;68.96;98695.23;128320;1108;22863;-74
2021/03/08 03:22:01;;;;;;;21.77;13.13;;;;;;;1.42;69.71;98716.10;128158;1109;24071;-74
2021/03/08 03:24:29;;;;;;;30.23;16.03;;;;;;;1.37;69.67;98705.19;128370;1108;22892;-74
2021/03/08 03:26:57;;;;;;;22.50;13.87;;;;;;;1.33;70.11;98709.34;128336;1108;22828;-74
2021/03/08 03:29:24;;;;;;;33.45;16.45;;;;;;;1.32;71.43;98711.20;128197;1109;22870;-73
2021/03/08 03:31:51;;;;;;;26.37;14.00;;;;;;;1.29;70.32;98710.84;128277;1108;22842;-73
2021/03/08 03:34:20;;;;;;;21.55;12.35;;;;;;;1.25;71.10;98710.45;128203;1107;23524;-73
2021/03/08 03:36:49;;;;;;;17.30;11.67;;;;;;;1.23;71.05;98711.70;128304;1108;22866;-73
2021/03/08 03:40:57;;;;;;;21.17;12.20;;;;;;;1.19;71.62;98705.94;124321;1110;23032;-73
2021/03/08 03:43:25;;;;;;;20.50;11.97;;;;;;;1.19;72.41;98705.94;128183;1112;22875;-73
2021/03/08 03:45:53;;;;;;;20.73;11.77;;;;;;;1.17;71.73;98701.83;128308;1110;22843;-74
2021/03/08 03:48:21;;;;;;;22.53;12.60;;;;;;;1.16;71.98;98700.18;128207;1109;22847;-74
2021/03/08 03:50:48;;;;;;;22.10;12.90;;;;;;;1.13;72.75;98700.64;128296;1111;23640;-73
2021/03/08 03:53:15;;;;;;;23.40;12.87;;;;;;;1.12;72.90;98705.19;128187;1110;22831;-74
2021/03/08 03:55:43;;;;;;;29.67;14.37;;;;;;;1.13;72.50;98706.00;128226;1112;22919;-74
2021/03/08 03:58:32;;;;;;;24.10;14.40;;;;;;;1.12;73.16;98707.05;128294;1110;22837;-73
2021/03/08 04:01:05;;;;;;;21.73;13.37;;;;;;;1.10;72.27;98693.02;128304;1111;23005;-74
2021/03/08 04:03:38;;;;;;;21.70;12.10;;;;;;;1.10;72.40;98706.44;128179;1111;22912;-74
2021/03/08 04:06:06;;;;;;;22.27;12.87;;;;;;;1.09;73.62;98704.79;128265;1110;22847;-74
2021/03/08 04:08:34;;;;;;;24.23;13.53;;;;;;;1.08;72.40;98705.83;128254;1111;23558;-74
2021/03/08 04:11:04;;;;;;;21.70;11.97;;;;;;;1.09;72.48;98689.52;128176;1112;25057;-74
2021/03/08 04:13:31;;;;;;;34.87;18.07;;;;;;;1.10;73.36;98698.39;128334;1111;22931;-74
2021/03/08 04:15:59;;;;;;;30.13;14.63;;;;;;;1.11;72.12;98700.03;128145;1112;22899;-74
2021/03/08 04:18:27;;;;;;;21.97;11.93;;;;;;;1.11;72.90;98700.85;128310;1110;22954;-74
2021/03/08 04:20:57;;;;;;;33.17;17.67;;;;;;;1.11;72.48;98702.72;128164;1110;23010;-75
2021/03/08 04:23:26;;;;;;;43.77;18.80;;;;;;;1.09;73.75;98702.93;128295;1111;22873;-74
2021/03/08 04:25:54;;;;;;;36.23;15.73;;;;;;;1.08;73.81;98700.45;128140;1111;23666;-74
2021/03/08 04:28:21;;;;;;;33.43;15.33;;;;;;;1.09;72.77;98704.79;128261;1112;22900;-75
2021/03/08 04:30:48;;;;;;;38.63;15.83;;;;;;;1.06;72.58;98698.81;128130;1112;23037;-75
2021/03/08 04:33:16;;;;;;;20.87;11.60;;;;;;;1.06;73.48;98698.81;128298;1111;23553;-75
2021/03/08 04:35:59;;;;;;;42.57;17.27;;;;;;;1.06;73.24;98700.67;126719;1111;26475;-74
2021/03/08 04:38:26;;;;;;;34.67;15.27;;;;;;;1.07;73.99;98702.31;124398;1112;23110;-75
2021/03/08 04:40:54;;;;;;;53.73;18.63;;;;;;;1.08;73.73;98709.33;124414;1112;24040;-76
2021/03/08 04:43:23;;;;;;;43.17;17.23;;;;;;;1.09;73.29;98707.47;128305;1112;22981;-76
2021/03/08 04:45:54;;;;;;;44.57;18.23;;;;;;;1.10;73.63;98701.06;128143;1111;22860;-76
2021/03/08 04:48:22;;;;;;;29.70;13.87;;;;;;;1.09;72.56;98699.42;128227;1111;23527;-76
2021/03/08 04:50:50;;;;;;;27.80;14.93;;;;;;;1.06;73.35;98696.13;128147;1112;22914;-76
2021/03/08 04:53:18;;;;;;;33.70;16.90;;;;;;;1.08;73.83;98712.02;128279;1111;22913;-76
2021/03/08 04:55:46;;;;;;;28.63;14.37;;;;;;;1.09;73.88;98704.79;128115;1112;22998;-76
2021/03/08 04:58:13;;;;;;;27.60;15.33;;;;;;;1.10;73.55;98711.80;128287;1111;22827;-76
2021/03/08 05:00:41;;;;;;;32.13;16.73;;;;;;;1.11;73.91;98708.08;128194;1111;23639;-76
2021/03/08 05:03:08;;;;;;;25.33;14.13;;;;;;;1.09;73.88;98705.61;128237;1112;22827;-77
2021/03/08 05:05:36;;;;;;;43.10;20.80;;;;;;;1.10;73.92;98709.11;128290;1112;22850;-77
2021/03/08 05:08:08;;;;;;;42.53;22.17;;;;;;;1.10;74.54;98709.94;128078;1112;22995;-76
2021/03/08 05:10:37;;;;;;;35.70;21.00;;;;;;;1.11;73.72;98708.08;128281;1111;22848;-76
2021/03/08 05:13:09;;;;;;;29.80;18.07;;;;;;;1.07;74.33;98710.36;128146;1111;22843;-77
2021/03/08 05:15:37;;;;;;;19.87;12.07;;;;;;;1.06;73.95;98720.27;128239;1111;23334;-77
2021/03/08 05:18:04;;;;;;;20.83;13.83;;;;;;;1.03;74.07;98715.34;128164;1111;23684;-77
2021/03/08 05:20:32;;;;;;;19.80;13.87;;;;;;;1.03;73.92;98719.87;128257;1111;23743;-77
2021/03/08 05:23:00;;;;;;;18.40;12.03;;;;;;;1.03;74.50;98718.02;128156;1112;22892;-76
2021/03/08 05:25:29;;;;;;;17.97;11.37;;;;;;;1.04;74.75;98726.88;128282;1111;22977;-76
2021/03/08 05:27:57;;;;;;;19.93;11.97;;;;;;;1.04;74.70;98729.56;128154;1111;22961;-76
2021/03/08 05:30:25;;;;;;;18.70;11.97;;;;;;;1.04;74.97;98722.34;128285;1111;22837;-76
2021/03/08 05:33:16;;;;;;;18.20;11.97;;;;;;;1.04;74.40;98722.34;125046;1111;27495;-76
2021/03/08 05:35:44;;;;;;;18.93;11.97;;;;;;;1.06;74.07;98732.86;128288;1112;22880;-77
2021/03/08 05:38:12;;;;;;;22.80;13.77;;;;;;;1.05;74.50;98734.72;128182;1111;22865;-76
2021/03/08 05:41:02;;;;;;;20.37;12.97;;;;;;;1.05;74.07;98740.09;125644;1111;27342;-76
2021/03/08 05:43:35;;;;;;;19.33;11.90;;;;;;;1.06;74.53;98743.59;124454;1110;23133;-76
2021/03/08 05:46:06;;;;;;;16.60;11.13;;;;;;;1.04;75.13;98761.75;128322;1111;22893;-77
2021/03/08 05:49:11;;;;;;;15.67;8.67;;;;;;;1.04;74.89;98753.70;128098;1112;22914;-76
2021/03/08 05:51:56;;;;;;;7.57;4.23;;;;;;;0.93;72.17;98765.95;128282;1111;23946;-77
2021/03/08 05:54:58;;;;;;;6.37;3.60;;;;;;;0.81;70.72;98772.20;128128;1111;22843;-76
2021/03/08 05:57:31;;;;;;;4.47;2.23;;;;;;;0.68;70.43;98784.64;128292;1111;22857;-76
2021/03/08 06:00:25;;;;;;;3.87;2.10;;;;;;;0.62;69.07;98782.80;128118;1111;24405;-77
2021/03/08 06:03:34;;;;;;;4.07;1.90;;;;;;;0.51;68.34;98788.82;128235;1112;23420;-76
2021/03/08 06:06:14;;;;;;;3.40;1.43;;;;;;;0.39;68.03;98789.69;127929;1114;22895;-77
2021/03/08 06:08:53;;;;;;;2.40;1.40;;;;;;;0.34;67.78;98791.13;127742;1115;25129;-78
2021/03/08 06:11:20;;;;;;;3.83;1.60;;;;;;;0.30;66.84;98792.58;127934;1115;22985;-71
2021/03/08 06:13:57;;;;;;;2.60;1.40;;;;;;;0.26;67.63;98810.13;127760;1114;25275;-72
2021/03/08 06:16:33;;;;;;;2.58;1.45;;;;;;;0.25;68.03;98803.12;127900;1114;22950;-68
2021/03/08 06:19:02;;;;;;;2.70;1.30;;;;;;;0.24;66.89;98819.40;127780;1114;23391;-67
2021/03/08 06:21:33;;;;;;;3.97;1.53;;;;;;;0.26;66.69;98822.70;127888;1114;23142;-67
2021/03/08 06:24:01;;;;;;;3.40;1.47;;;;;;;0.29;67.03;98828.44;127793;1114;23505;-67
2021/03/08 06:26:29;;;;;;;4.40;2.03;;;;;;;0.28;66.68;98829.50;127947;1115;23309;-65
2021/03/08 06:28:57;;;;;;;10.83;5.87;;;;;;;0.27;66.35;98825.17;127927;1114;22970;-65
2021/03/08 06:31:27;;;;;;;3.47;2.03;;;;;;;0.26;67.86;98834.23;127749;1115;23130;-65
2021/03/08 06:33:58;;;;;;;8.43;4.80;;;;;;;0.26;65.84;98838.77;127917;1114;22948;-66
2021/03/08 06:36:25;;;;;;;6.23;4.33;;;;;;;0.24;66.03;98843.51;127850;1111;22922;-66
2021/03/08 06:38:53;;;;;;;4.03;2.60;;;;;;;0.20;65.40;98840.41;128251;1112;23010;-65
2021/03/08 06:41:20;;;;;;;3.63;1.50;;;;;;;0.19;66.04;98840.62;128147;1111;23117;-66
2021/03/08 06:43:49;;;;;;;4.03;1.60;;;;;;;0.20;65.92;98836.91;128255;1112;22865;-65
2021/03/08 06:46:16;;;;;;;4.77;3.40;;;;;;;0.20;64.84;98853.81;128119;1111;23590;-66
2021/03/08 06:48:44;;;;;;;4.37;2.30;;;;;;;0.19;64.88;98837.94;128221;1111;22999;-66
2021/03/08 06:51:14;;;;;;;2.47;1.40;;;;;;;0.17;64.54;98840.00;128148;1111;22985;-67
2021/03/08 06:53:41;;;;;;;3.33;1.20;;;;;;;0.16;63.84;98838.34;128268;1111;22882;-67
2021/03/08 06:56:16;;;;;;;2.77;1.17;;;;;;;0.16;64.76;98841.03;128177;1110;22845;-67
2021/03/08 06:58:44;;;;;;;4.30;1.47;;;;;;;0.17;64.33;98851.54;128249;1112;23708;-67
2021/03/08 07:01:13;;;;;;;2.97;1.50;;;;;;;0.21;64.87;98841.23;128131;1111;22924;-66
2021/03/08 07:03:41;;;;;;;2.53;1.33;;;;;;;0.20;64.11;98845.77;128200;1111;22866;-67
2021/03/08 07:06:16;;;;;;;3.17;1.40;;;;;;;0.19;64.21;98848.66;128141;1112;22861;-66
2021/03/08 07:08:44;;;;;;;4.60;1.30;;;;;;;0.16;64.65;98839.17;128238;1112;22830;-66
2021/03/08 07:11:22;;;;;;;4.83;1.57;;;;;;;0.18;65.08;98847.83;128086;1112;22887;-66
2021/03/08 07:13:49;;;;;;;3.63;1.50;;;;;;;0.14;64.92;98840.44;128262;1111;23431;-68
2021/03/08 07:16:17;;;;;;;4.23;2.27;;;;;;;0.11;64.98;98840.84;128008;1111;22943;-67
2021/03/08 07:18:45;;;;;;;7.27;3.60;;;;;;;0.09;65.49;98838.38;128213;1112;22866;-66
2021/03/08 07:21:19;;;;;;;6.67;3.03;;;;;;;0.14;64.87;98846.62;128045;1111;23043;-68
2021/03/08 07:23:50;;;;;;;4.47;2.07;;;;;;;0.20;65.47;98845.77;128216;1111;22911;-67
2021/03/08 07:26:19;;;;;;;5.70;2.20;;;;;;;0.27;65.40;98843.92;128157;1111;23017;-67
2021/03/08 07:29:08;;;;;;;2.83;1.47;;;;;;;0.35;65.09;98856.26;128209;1112;23092;-67
2021/03/08 07:31:54;;;;;;;3.13;1.60;;;;;;;0.40;63.94;98861.00;128149;1112;22866;-67
2021/03/08 07:34:45;;;;;;;5.00;1.80;;;;;;;0.39;64.38;98854.82;128283;1112;22895;-66
2021/03/08 07:37:13;;;;;;;5.13;2.37;;;;;;;0.35;63.93;98849.05;128097;1112;22872;-67
2021/03/08 07:39:51;;;;;;;4.40;1.90;;;;;;;0.38;64.75;98857.70;128204;1112;23165;-66
2021/03/08 07:42:18;;;;;;;8.77;3.87;;;;;;;0.42;63.64;98861.62;128134;1110;23002;-68
2021/03/08 07:44:52;;;;;;;6.73;2.00;;;;;;;0.43;63.60;98855.23;128234;1111;22856;-67
2021/03/08 07:47:21;;;;;;;15.10;7.37;;;;;;;0.46;63.60;98850.25;128114;1110;22879;-66
2021/03/08 07:49:49;;;;;;;13.00;5.50;;;;;;;0.45;63.24;98858.50;128305;1111;23891;-67
2021/03/08 07:52:17;;;;;;;5.67;3.00;;;;;;;0.44;64.24;98862.21;128258;1112;22846;-66
2021/03/08 07:54:57;;;;;;;5.47;2.37;;;;;;;0.49;63.65;98862.42;128300;1112;22834;-66
2021/03/08 07:57:25;;;;;;;4.50;2.43;;;;;;;0.53;63.99;98856.44;128276;1111;22860;-67
2021/03/08 07:59:53;;;;;;;6.90;2.80;;;;;;;0.62;63.07;98859.70;128130;1111;22862;-66
2021/03/08 08:02:21;;;;;;;4.67;2.00;;;;;;;0.69;63.53;98863.20;128281;1111;23758;-66
2021/03/08 08:05:02;;;;;;;3.53;1.20;;;;;;;0.75;62.16;98856.98;128091;1112;23571;-67
2021/03/08 08:07:33;;;;;;;1.63;1.07;;;;;;;0.82;62.69;98855.12;128241;1112;22849;-67
2021/03/08 08:10:04;;;;;;;3.33;1.80;;;;;;;0.92;62.12;98857.34;128158;1111;22858;-67
2021/03/08 08:12:33;;;;;;;2.60;1.40;;;;;;;1.03;62.62;98862.03;128281;1111;24048;-67
2021/03/08 08:15:03;;;;;;;3.90;1.23;;;;;;;1.10;60.56;98856.66;129017;1105;22841;-67
2021/03/08 08:17:33;;;;;;;4.10;1.37;;;;;;;1.12;60.36;98852.73;129206;1106;22841;-67
2021/03/08 08:20:05;;;;;;;3.33;1.33;;;;;;;1.02;59.65;98845.11;128348;1105;22945;-68
2021/03/08 08:22:33;;;;;;;4.27;1.60;;;;;;;1.08;59.31;98869.45;129202;1105;22887;-69
2021/03/08 08:25:03;;;;;;;3.15;1.65;;;;;;;1.09;59.51;98855.00;129067;1105;22820;-69
2021/03/08 08:27:31;;;;;;;3.80;2.47;;;;;;;1.16;59.30;98853.09;129204;1105;23654;-68
2021/03/08 08:29:59;;;;;;;3.13;1.60;;;;;;;1.22;57.98;98858.45;128341;1106;22963;-69
2021/03/08 08:32:27;;;;;;;4.13;1.53;;;;;;;1.30;57.86;98847.45;128444;1105;23400;-68
2021/03/08 08:34:55;;;;;;;1.70;0.90;;;;;;;1.39;56.29;98845.36;128385;1105;22900;-68
2021/03/08 08:37:24;;;;;;;1.27;0.93;;;;;;;1.44;56.51;98855.45;125278;1106;23477;-68
2021/03/08 08:39:51;;;;;;;2.37;1.20;;;;;;;1.46;56.08;98853.35;129063;1105;22931;-69
2021/03/08 08:42:29;;;;;;;9.37;1.40;;;;;;;1.49;54.85;98852.92;129194;1106;22879;-69
2021/03/08 08:44:58;;;;;;;4.03;1.50;;;;;;;1.54;54.98;98853.11;129044;1105;22903;-69
2021/03/08 08:47:27;;;;;;;1.37;0.70;;;;;;;1.58;53.87;98855.16;129185;1105;22907;-67
2021/03/08 08:50:04;;;;;;;2.10;0.80;;;;;;;1.62;53.62;98852.84;129067;1105;23706;-68
2021/03/08 08:52:51;;;;;;;9.15;1.70;;;;;;;1.67;54.09;98853.02;129191;1105;23782;-70
2021/03/08 08:55:20;;;;;;;3.53;2.20;;;;;;;1.76;53.57;98852.53;129037;1106;22864;-69
2021/03/08 08:58:23;;;;;;;6.37;1.93;;;;;;;1.81;52.16;98848.38;128411;1106;22975;-69
2021/03/08 09:01:15;;;;;;;3.23;1.57;;;;;;;1.83;51.59;98862.41;128181;1109;23126;-70
2021/03/08 09:03:56;;;;;;;4.00;1.77;;;;;;;1.83;52.17;98862.41;128333;1109;22947;-70
2021/03/08 09:06:40;;;;;;;4.80;2.20;;;;;;;1.89;51.93;98866.90;128254;1108;22862;-69
2021/03/08 09:09:08;;;;;;;4.55;2.35;;;;;;;1.93;51.55;98860.88;128352;1108;22913;-69
2021/03/08 09:11:45;;;;;;;2.90;1.45;;;;;;;1.99;51.95;98867.25;128256;1109;22854;-69
2021/03/08 09:14:34;;;;;;;5.15;1.65;;;;;;;2.06;51.53;98859.95;128391;1108;22894;-70
2021/03/08 09:17:16;;;;;;;3.53;1.60;;;;;;;2.15;50.64;98865.89;128179;1108;22842;-70
2021/03/08 09:20:06;;;;;;;5.00;1.10;;;;;;;2.17;50.41;98863.78;128339;1108;23069;-69
2021/03/08 09:22:58;;;;;;;5.20;2.00;;;;;;;2.15;50.40;98864.02;128248;1109;22882;-68
2021/03/08 09:25:35;;;;;;;2.80;1.20;;;;;;;2.12;49.59;98870.66;128316;1107;22999;-67
2021/03/08 09:28:10;;;;;;;1.77;0.90;;;;;;;2.06;48.98;98878.75;128215;1108;22869;-70
2021/03/08 09:30:44;;;;;;;1.83;0.90;;;;;;;1.96;45.99;98883.80;128427;1107;22850;-70
2021/03/08 09:33:16;;;;;;;3.95;1.60;;;;;;;1.85;48.09;98881.83;128201;1109;23022;-69
2021/03/08 09:35:52;;;;;;;4.55;1.75;;;;;;;1.83;46.93;98884.73;127876;1104;23039;-69
2021/03/08 09:38:21;;;;;;;7.20;1.63;;;;;;;1.85;46.26;98884.52;129081;1104;22880;-71
2021/03/08 09:40:51;;;;;;;3.57;1.90;;;;;;;1.84;46.29;98886.38;129180;1105;23720;-70
2021/03/08 09:43:24;;;;;;;5.20;2.65;;;;;;;1.81;46.51;98883.29;129047;1105;23273;-69
2021/03/08 09:45:55;;;;;;;4.95;1.15;;;;;;;1.80;47.29;98895.07;129174;1105;22885;-69
2021/03/08 09:48:23;;;;;;;3.53;2.10;;;;;;;1.74;45.31;98880.64;128994;1105;23660;-69
2021/03/08 09:50:52;;;;;;;2.70;1.10;;;;;;;1.66;46.01;98884.42;129200;1105;23418;-68
2021/03/08 09:53:22;;;;;;;4.17;1.63;;;;;;;1.63;46.41;98879.47;129047;1106;22985;-69
2021/03/08 09:55:49;;;;;;;3.85;1.70;;;;;;;1.68;47.62;98879.66;129155;1105;23556;-68
2021/03/08 09:58:18;;;;;;;1.60;0.90;;;;;;;1.76;46.29;98879.38;128367;1106;22962;-69
2021/03/08 10:00:47;;;;;;;3.65;1.30;;;;;;;1.88;45.75;98884.88;129191;1105;22979;-68
2021/03/08 10:03:15;;;;;;;2.87;0.87;;;;;;;1.92;44.60;98883.41;129098;1105;22874;-68
2021/03/08 10:05:50;;;;;;;4.73;0.73;;;;;;;1.91;45.49;98897.88;128249;1107;22865;-68
2021/03/08 10:08:18;;;;;;;2.17;1.10;;;;;;;1.86;46.10;98889.67;128169;1106;23029;-70
2021/03/08 10:10:59;;;;;;;4.30;2.00;;;;;;;1.84;45.57;98890.92;129219;1105;22857;-69
2021/03/08 10:13:26;;;;;;;8.73;3.87;;;;;;;1.84;46.04;98881.00;129049;1105;23482;-69
2021/03/08 10:15:55;;;;;;;3.57;1.73;;;;;;;1.86;45.32;98892.36;127897;1105;23058;-69
2021/03/08 10:18:28;;;;;;;2.27;1.33;;;;;;;1.85;44.31;98892.57;129072;1105;23032;-69
2021/03/08 10:21:00;;;;;;;3.43;1.10;;;;;;;1.74;43.98;98884.14;129111;1105;23675;-68
2021/03/08 10:23:34;;;;;;;3.10;1.00;;;;;;;1.66;44.41;98881.73;129095;1105;24109;-68
2021/03/08 10:26:05;;;;;;;4.00;1.93;;;;;;;1.69;45.52;98889.36;129208;1105;22895;-69
2021/03/08 10:28:43;;;;;;;2.67;1.17;;;;;;;1.76;45.59;98890.13;129086;1105;22857;-68
2021/03/08 10:31:28;;;;;;;5.90;1.93;;;;;;;1.84;46.22;98882.86;129139;1105;22978;-69
2021/03/08 10:34:00;;;;;;;1.40;0.90;;;;;;;1.91;45.67;98879.08;129044;1106;22860;-70
2021/03/08 10:36:35;;;;;;;3.55;1.10;;;;;;;1.92;44.69;98878.03;128461;1106;22981;-69
2021/03/08 10:39:13;;;;;;;2.83;1.03;;;;;;;1.93;45.13;98874.31;129062;1105;29262;-69
2021/03/08 10:41:42;;;;;;;3.55;1.20;;;;;;;1.95;44.77;98868.72;129122;1105;23038;-69
2021/03/08 10:44:10;;;;;;;3.45;0.90;;;;;;;1.89;44.55;98874.95;128277;1106;22891;-69
2021/03/08 10:46:39;;;;;;;4.20;1.80;;;;;;;1.85;45.47;98879.14;128543;1105;22912;-69
2021/03/08 10:49:08;;;;;;;4.40;1.60;;;;;;;1.88;46.19;98886.73;129249;1104;22932;-70
2021/03/08 10:51:37;;;;;;;3.90;1.30;;;;;;;1.91;45.28;98875.56;129187;1105;22946;-69
2021/03/08 10:54:12;;;;;;;2.83;1.27;;;;;;;1.95;45.12;98877.61;129152;1104;22888;-70
2021/03/08 10:56:42;;;;;;;3.60;1.60;;;;;;;2.05;45.74;98867.19;128974;1105;23026;-69
2021/03/08 10:59:26;;;;;;;3.93;1.67;;;;;;;2.17;45.38;98872.66;129063;1105;23023;-69
2021/03/08 11:02:04;;;;;;;4.40;0.80;;;;;;;2.32;44.23;98866.95;129038;1105;23055;-69
2021/03/08 11:04:33;;;;;;;3.10;1.35;;;;;;;2.43;43.79;98861.70;129216;1105;22888;-69
2021/03/08 11:07:03;;;;;;;13.73;4.50;;;;;;;2.55;43.88;98863.64;129091;1105;23546;-69
2021/03/08 11:09:44;;;;;;;6.62;2.85;;;;;;;2.65;43.43;98866.64;129181;1105;22925;-69
2021/03/08 11:12:21;;;;;;;11.80;4.53;;;;;;;2.69;43.44;98878.59;129122;1105;22877;-69
2021/03/08 11:14:58;;;;;;;5.25;2.10;;;;;;;2.74;42.24;98873.38;129253;1105;23021;-68
2021/03/08 11:17:41;;;;;;;4.70;2.15;;;;;;;2.76;42.37;98876.64;129095;1104;22864;-69
2021/03/08 11:20:14;;;;;;;5.50;2.10;;;;;;;2.75;42.20;98867.75;129158;1105;23020;-69
2021/03/08 11:23:03;;;;;;;4.35;2.10;;;;;;;2.77;42.54;98867.53;129050;1105;22843;-69
2021/03/08 11:25:41;;;;;;;3.80;1.70;;;;;;;2.81;42.50;98863.36;129177;1105;22903;-68
2021/03/08 11:28:13;;;;;;;3.40;1.73;;;;;;;2.87;42.44;98869.72;129229;1104;22871;-69
2021/03/08 11:30:44;;;;;;;2.70;1.50;;;;;;;2.88;42.95;98861.43;129224;1105;22949;-69
2021/03/08 11:33:12;;;;;;;2.25;0.90;;;;;;;2.86;42.15;98868.08;129206;1104;22976;-71
2021/03/08 11:35:41;;;;;;;2.73;1.20;;;;;;;2.82;42.81;98865.83;128413;1106;22897;-68
2021/03/08 11:38:10;;;;;;;6.70;2.67;;;;;;;2.83;42.17;98851.33;129039;1105;23067;-69
2021/03/08 11:40:42;;;;;;;8.15;1.65;;;;;;;2.89;42.27;98848.77;128921;1105;22858;-70
2021/03/08 11:43:10;;;;;;;6.30;2.97;;;;;;;2.95;41.86;98861.34;129092;1104;22830;-69
2021/03/08 11:45:37;;;;;;;5.23;1.97;;;;;;;2.98;41.73;98867.09;128108;1105;26113;-69
2021/03/08 11:48:06;;;;;;;4.37;1.93;;;;;;;2.95;42.51;98872.92;124826;1105;23120;-68
2021/03/08 11:50:33;;;;;;;4.43;1.83;;;;;;;2.86;41.59;98879.66;129173;1105;22989;-69